createdAt,value
2019-06-07T00:02:18.777Z,70.90
2019-06-07T00:04:48.501Z,71.00
2019-06-07T00:07:21.869Z,71.70
2019-06-07T00:09:49.523Z,70.30
2019-06-07T00:12:21.448Z,69.80
2019-06-07T00:14:50.138Z,70.00
2019-06-07T00:17:20.224Z,70.50
2019-06-07T00:19:50.186Z,70.80
2019-06-07T00:22:32.263Z,70.90
2019-06-07T00:24:51.179Z,70.80
2019-06-07T00:27:22.551Z,70.80
2019-06-07T00:29:52.052Z,70.60
2019-06-07T00:32:22.270Z,70.80
2019-06-07T00:34:51.507Z,71.30
2019-06-07T00:37:23.409Z,72.30
2019-06-07T00:40:12.765Z,71.70
2019-06-07T00:42:24.253Z,71.30
2019-06-07T00:44:53.462Z,70.40
2019-06-07T00:47:25.389Z,70.10
2019-06-07T00:49:53.968Z,70.20
2019-06-07T00:53:11.525Z,70.40
2019-06-07T00:54:55.133Z,69.80
2019-06-07T00:57:24.729Z,69.70
2019-06-07T00:59:54.372Z,69.90
2019-06-07T01:02:28.804Z,70.40
2019-06-07T01:04:55.207Z,70.40
2019-06-07T01:07:24.630Z,70.50
2019-06-07T01:09:54.145Z,70.80
2019-06-07T01:12:24.598Z,70.30
2019-06-07T01:14:54.148Z,70.30
2019-06-07T01:17:41.461Z,69.80
2019-06-07T01:19:59.214Z,70.10
2019-06-07T01:22:29.348Z,69.90
2019-06-07T01:25:01.850Z,70.10
2019-06-07T01:27:31.292Z,70.00
2019-06-07T01:30:00.848Z,70.30
2019-06-07T01:32:31.836Z,70.10
2019-06-07T01:35:01.688Z,70.20
2019-06-07T01:37:31.126Z,69.20
2019-06-07T01:40:01.876Z,68.30
2019-06-07T01:42:31.304Z,68.70
2019-06-07T01:45:04.566Z,69.60
2019-06-07T01:47:33.812Z,68.80
2019-06-07T01:50:03.017Z,69.20
2019-06-07T01:52:32.615Z,69.60
2019-06-07T01:55:02.101Z,69.60
2019-06-07T01:57:45.741Z,69.20
2019-06-07T02:00:05.251Z,68.90
2019-06-07T02:02:34.972Z,69.50
2019-06-07T02:05:05.448Z,70.80
2019-06-07T02:07:34.813Z,69.80
2019-06-07T02:10:05.791Z,69.50
2019-06-07T02:12:43.213Z,69.40
2019-06-07T02:15:08.559Z,69.80
2019-06-07T02:17:38.338Z,70.10
2019-06-07T02:20:08.511Z,70.40
2019-06-07T02:22:38.253Z,70.00
2019-06-07T02:27:40.009Z,69.90
2019-06-07T02:30:36.917Z,70.10
2019-06-07T02:32:43.308Z,70.30
2019-06-07T02:35:12.722Z,70.30
2019-06-07T02:37:42.208Z,70.10
2019-06-07T02:40:11.973Z,70.10
2019-06-07T02:42:42.614Z,69.80
2019-06-07T02:45:12.859Z,69.90
2019-06-07T02:47:45.250Z,70.30
2019-06-07T02:50:15.735Z,69.50
2019-06-07T02:52:45.377Z,70.10
2019-06-07T02:55:15.052Z,67.00
2019-06-07T02:57:47.574Z,67.40
2019-06-07T03:00:58.611Z,63.70
2019-06-07T03:03:08.673Z,67.20
2019-06-07T03:05:41.182Z,68.50
2019-06-07T03:08:13.137Z,67.40
2019-06-07T03:10:44.968Z,67.60
2019-06-07T03:13:19.131Z,67.90
2019-06-07T03:15:52.892Z,68.00
2019-06-07T03:18:41.225Z,64.60
2019-06-07T03:21:10.575Z,65.20
2019-06-07T03:23:41.302Z,65.90
2019-06-07T03:26:10.598Z,66.90
2019-06-07T03:28:40.057Z,66.10
2019-06-07T03:31:10.583Z,65.50
2019-06-07T03:33:42.856Z,65.50
2019-06-07T03:36:23.501Z,63.50
2019-06-07T03:38:44.814Z,65.00
2019-06-07T03:41:17.490Z,64.30
2019-06-07T03:43:47.006Z,63.40
2019-06-07T03:46:16.260Z,65.00
2019-06-07T03:48:45.898Z,66.00
2019-06-07T03:51:24.853Z,66.20
2019-06-07T03:53:46.331Z,66.30
2019-06-07T03:56:16.051Z,66.20
2019-06-07T03:58:49.749Z,66.00
2019-06-07T04:01:16.068Z,65.40
2019-06-07T04:03:51.410Z,66.10
2019-06-07T04:06:16.570Z,65.50
2019-06-07T04:08:45.749Z,65.80
2019-06-07T04:11:15.173Z,66.30
2019-06-07T04:13:44.425Z,65.70
2019-06-07T04:16:14.338Z,65.20
2019-06-07T04:18:43.622Z,65.00
2019-06-07T04:21:13.047Z,65.80
2019-06-07T04:23:45.645Z,65.80
2019-06-07T04:26:13.897Z,66.90
2019-06-07T04:29:31.120Z,66.60
2019-06-07T04:31:13.919Z,65.80
2019-06-07T04:33:47.729Z,65.40
2019-06-07T04:36:17.300Z,66.50
2019-06-07T04:38:47.495Z,66.30
2019-06-07T04:41:18.621Z,63.90
2019-06-07T04:43:48.863Z,66.10
2019-06-07T04:46:20.251Z,66.60
2019-06-07T04:48:51.338Z,66.90
2019-06-07T04:51:24.106Z,66.00
2019-06-07T04:53:53.775Z,67.60
2019-06-07T04:56:23.298Z,64.50
2019-06-07T04:58:53.066Z,60.80
2019-06-07T05:01:27.644Z,66.20
2019-06-07T05:03:53.348Z,65.40
2019-06-07T05:06:22.551Z,64.40
2019-06-07T05:08:52.090Z,65.90
2019-06-07T05:11:21.659Z,66.00
2019-06-07T05:13:51.094Z,59.30
2019-06-07T05:16:20.453Z,60.10
2019-06-07T05:18:51.199Z,63.90
2019-06-07T05:21:20.599Z,62.80
2019-06-07T05:24:06.463Z,62.60
2019-06-07T05:26:21.353Z,59.90
2019-06-07T05:28:50.647Z,62.50
2019-06-07T05:31:20.142Z,59.30
2019-06-07T05:33:49.493Z,62.60
2019-06-07T05:36:18.750Z,61.60
2019-06-07T05:38:48.103Z,62.10
2019-06-07T05:41:17.250Z,59.70
2019-06-07T05:44:00.252Z,58.60
2019-06-07T05:46:17.133Z,58.90
2019-06-07T05:48:46.668Z,57.80
2019-06-07T05:51:16.066Z,57.70
2019-06-07T05:53:46.207Z,56.60
2019-06-07T05:56:15.639Z,55.50
2019-06-07T05:58:45.244Z,55.50
2019-06-07T06:01:42.214Z,55.20
2019-06-07T06:03:48.038Z,54.40
2019-06-07T06:06:16.944Z,54.20
2019-06-07T06:08:47.774Z,55.50
2019-06-07T06:11:18.472Z,54.50
2019-06-07T06:14:06.045Z,54.90
2019-06-07T06:16:20.095Z,55.40
2019-06-07T06:18:49.665Z,54.60
2019-06-07T06:21:20.401Z,54.80
2019-06-07T06:23:51.890Z,55.30
2019-06-07T06:26:20.640Z,55.20
2019-06-07T06:28:49.932Z,54.90
2019-06-07T06:31:19.238Z,54.60
2019-06-07T06:33:49.949Z,54.80
2019-06-07T06:36:19.832Z,55.20
2019-06-07T06:38:51.319Z,55.30
2019-06-07T06:41:21.082Z,54.50
2019-06-07T06:43:52.576Z,54.80
2019-06-07T06:46:38.026Z,53.80
2019-06-07T06:48:55.375Z,53.10
2019-06-07T06:51:23.155Z,51.80
2019-06-07T06:53:52.711Z,51.10
2019-06-07T06:56:21.912Z,53.50
2019-06-07T06:59:27.317Z,53.50
2019-06-07T07:01:22.500Z,50.90
2019-06-07T07:04:11.073Z,50.70
2019-06-07T07:06:26.281Z,52.20
2019-06-07T07:08:55.253Z,51.10
2019-06-07T07:11:26.064Z,51.60
2019-06-07T07:13:56.864Z,52.40
2019-06-07T07:16:26.020Z,52.40
2019-06-07T07:18:54.992Z,52.30
2019-06-07T07:21:23.786Z,52.60
2019-06-07T07:24:19.667Z,52.20
2019-06-07T07:26:22.541Z,52.30
2019-06-07T07:28:54.594Z,52.40
2019-06-07T07:31:21.289Z,52.40
2019-06-07T07:36:38.005Z,52.50
2019-06-07T07:39:00.531Z,50.50
2019-06-07T07:41:21.369Z,51.80
2019-06-07T07:43:59.912Z,52.20
2019-06-07T07:46:29.298Z,50.40
2019-06-07T07:48:53.020Z,50.30
2019-06-07T07:51:20.487Z,51.00
2019-06-07T07:53:58.980Z,50.80
2019-06-07T07:56:19.847Z,51.20
2019-06-07T07:58:53.691Z,50.80
2019-06-07T08:01:18.583Z,51.70
2019-06-07T08:03:48.153Z,51.90
2019-06-07T08:06:17.122Z,51.10
2019-06-07T08:08:46.359Z,50.30
2019-06-07T08:11:15.197Z,51.80
2019-06-07T08:13:43.751Z,52.80
2019-06-07T08:16:16.470Z,52.30
2019-06-07T08:18:42.486Z,52.80
2019-06-07T08:21:24.735Z,51.30
2019-06-07T08:23:41.587Z,52.60
2019-06-07T08:26:10.397Z,51.90
2019-06-07T08:28:38.888Z,51.80
2019-06-07T08:31:08.135Z,52.60
2019-06-07T08:33:36.973Z,52.40
2019-06-07T08:36:19.217Z,52.30
2019-06-07T08:38:47.553Z,52.10
2019-06-07T08:41:12.106Z,52.70
2019-06-07T08:43:36.627Z,53.20
2019-06-07T08:46:07.620Z,53.00
2019-06-07T08:48:35.740Z,51.40
2019-06-07T08:51:08.271Z,52.60
2019-06-07T08:53:34.755Z,50.10
2019-06-07T08:56:09.016Z,50.20
2019-06-07T08:58:33.525Z,51.50
2019-06-07T09:01:06.377Z,52.70
2019-06-07T09:03:32.311Z,51.20
2019-06-07T09:06:16.387Z,51.60
2019-06-07T09:08:31.199Z,50.70
2019-06-07T09:11:05.398Z,51.90
2019-06-07T09:13:29.937Z,52.10
2019-06-07T09:16:04.975Z,51.10
2019-06-07T09:18:41.998Z,48.30
2019-06-07T09:21:01.136Z,50.70
2019-06-07T09:23:29.099Z,51.30
2019-06-07T09:26:09.809Z,51.00
2019-06-07T09:28:28.258Z,51.00
2019-06-07T09:30:57.868Z,51.90
2019-06-07T09:33:26.909Z,51.30
2019-06-07T09:35:56.241Z,51.60
2019-06-07T09:38:26.862Z,50.90
2019-06-07T09:40:57.433Z,50.30
2019-06-07T09:45:56.655Z,51.50
2019-06-07T09:49:09.266Z,52.10
2019-06-07T09:51:02.122Z,50.20
2019-06-07T09:53:26.715Z,51.30
2019-06-07T09:55:56.749Z,51.00
2019-06-07T10:00:59.168Z,51.00
2019-06-07T10:03:26.274Z,51.40
2019-06-07T10:05:54.733Z,51.20
2019-06-07T10:09:42.281Z,50.80
2019-06-07T10:10:53.455Z,50.30
2019-06-07T10:13:22.059Z,50.50
2019-06-07T10:15:53.632Z,50.50
2019-06-07T10:18:21.253Z,50.10
2019-06-07T10:20:49.729Z,50.40
2019-06-07T10:23:37.825Z,50.20
2019-06-07T10:26:06.412Z,51.20
2019-06-07T10:28:35.295Z,50.90
2019-06-07T10:31:04.508Z,49.40
2019-06-07T10:33:33.091Z,50.00
2019-06-07T10:36:02.471Z,50.00
2019-06-07T10:38:31.094Z,48.30
2019-06-07T10:41:00.784Z,47.90
2019-06-07T10:43:29.672Z,49.10
2019-06-07T10:45:58.145Z,49.40
2019-06-07T10:48:26.598Z,46.00
2019-06-07T10:50:55.090Z,49.40
2019-06-07T10:53:23.537Z,49.40
2019-06-07T10:55:52.019Z,47.50
2019-06-07T10:58:20.970Z,46.00
2019-06-07T11:00:49.856Z,46.80
2019-06-07T11:03:18.346Z,44.70
2019-06-07T11:05:47.682Z,44.50
2019-06-07T11:08:16.222Z,45.50
2019-06-07T11:10:44.669Z,46.30
2019-06-07T11:13:14.379Z,47.10
2019-06-07T11:15:43.133Z,47.50
2019-06-07T11:18:12.549Z,49.00
2019-06-07T11:20:41.251Z,47.20
2019-06-07T11:23:10.092Z,46.10
2019-06-07T11:25:39.079Z,45.10
2019-06-07T11:28:08.393Z,44.80
2019-06-07T11:30:36.999Z,45.90
2019-06-07T11:33:06.427Z,44.40
2019-06-07T11:35:35.565Z,45.50
2019-06-07T11:38:04.748Z,46.70
2019-06-07T11:40:35.969Z,45.90
2019-06-07T11:43:03.942Z,46.90
2019-06-07T11:45:32.453Z,47.60
2019-06-07T11:48:01.231Z,46.10
2019-06-07T11:50:29.706Z,45.80
2019-06-07T11:52:58.517Z,46.60
2019-06-07T11:55:27.214Z,46.00
2019-06-07T11:57:55.709Z,46.50
2019-06-07T12:00:24.383Z,45.90
2019-06-07T12:02:52.995Z,45.30
2019-06-07T12:05:21.579Z,44.90
2019-06-07T12:07:50.422Z,42.50
2019-06-07T12:10:22.855Z,45.80
2019-06-07T12:12:50.354Z,43.20
2019-06-07T12:15:19.398Z,42.30
2019-06-07T12:17:48.605Z,44.40
2019-06-07T12:20:19.503Z,47.30
2019-06-07T12:22:47.979Z,43.80
2019-06-07T12:25:21.547Z,42.30
2019-06-07T12:27:47.514Z,41.60
2019-06-07T12:30:22.523Z,39.10
2019-06-07T12:32:46.500Z,39.20
2019-06-07T12:35:15.709Z,39.80
2019-06-07T12:37:45.095Z,38.70
2019-06-07T12:40:22.399Z,38.60
2019-06-07T12:42:44.419Z,39.30
2019-06-07T12:45:30.740Z,40.80
2019-06-07T12:47:43.383Z,39.50
2019-06-07T12:50:13.496Z,41.40
2019-06-07T12:52:42.535Z,39.20
2019-06-07T12:55:11.352Z,38.40
2019-06-07T12:57:39.840Z,34.30
2019-06-07T13:00:14.115Z,35.10
2019-06-07T13:02:43.211Z,35.10
2019-06-07T13:05:12.247Z,34.50
2019-06-07T13:07:40.841Z,35.00
2019-06-07T13:10:10.000Z,35.10
2019-06-07T13:12:38.802Z,35.20
2019-06-07T13:15:08.091Z,36.30
2019-06-07T13:17:37.866Z,35.60
2019-06-07T13:20:08.515Z,36.60
2019-06-07T13:22:37.518Z,36.80
2019-06-07T13:25:07.773Z,35.80
2019-06-07T13:27:36.392Z,38.00
2019-06-07T13:30:10.177Z,36.00
2019-06-07T13:32:37.691Z,36.50
2019-06-07T13:35:08.438Z,34.50
2019-06-07T13:37:36.926Z,35.30
2019-06-07T13:40:06.696Z,37.40
2019-06-07T13:42:35.606Z,35.60
2019-06-07T13:45:08.066Z,40.60
2019-06-07T13:47:36.594Z,35.70
2019-06-07T13:50:08.870Z,35.30
2019-06-07T13:52:37.709Z,34.90
2019-06-07T13:55:07.057Z,35.80
2019-06-07T13:57:36.125Z,34.50
2019-06-07T14:00:11.973Z,34.90
2019-06-07T14:02:40.586Z,33.20
2019-06-07T14:05:09.873Z,32.30
2019-06-07T14:07:38.758Z,32.50
2019-06-07T14:10:11.412Z,33.70
2019-06-07T14:12:38.983Z,31.60
2019-06-07T14:15:08.480Z,31.60
2019-06-07T14:17:37.123Z,33.60
2019-06-07T14:20:07.048Z,33.40
2019-06-07T14:22:35.883Z,35.30
2019-06-07T14:25:07.175Z,35.00
2019-06-07T14:27:35.636Z,35.00
2019-06-07T14:30:07.315Z,36.40
2019-06-07T14:32:35.867Z,35.20
2019-06-07T14:35:07.266Z,36.60
2019-06-07T14:37:35.777Z,37.10
2019-06-07T14:40:06.861Z,37.60
2019-06-07T14:42:35.382Z,38.90
2019-06-07T14:45:06.343Z,41.10
2019-06-07T14:47:35.441Z,38.50
2019-06-07T14:50:05.731Z,40.20
2019-06-07T14:52:35.128Z,40.30
2019-06-07T14:55:07.934Z,39.00
2019-06-07T14:57:37.622Z,39.60
2019-06-07T15:00:14.031Z,39.70
2019-06-07T15:02:42.639Z,36.90
2019-06-07T15:05:11.872Z,39.20
2019-06-07T15:07:40.802Z,40.30
2019-06-07T15:10:09.760Z,40.60
2019-06-07T15:12:40.012Z,40.20
2019-06-07T15:15:09.409Z,39.80
2019-06-07T15:17:39.212Z,41.50
2019-06-07T15:20:09.552Z,42.30
2019-06-07T15:22:38.734Z,44.10
2019-06-07T15:25:08.707Z,45.30
2019-06-07T15:27:37.864Z,43.60
2019-06-07T15:30:10.546Z,43.80
2019-06-07T15:36:11.328Z,42.90
2019-06-07T15:38:39.855Z,42.70
2019-06-07T15:41:08.402Z,42.20
2019-06-07T15:43:37.405Z,43.60
2019-06-07T15:46:06.563Z,42.80
2019-06-07T15:48:36.098Z,42.70
2019-06-07T15:51:05.256Z,43.00
2019-06-07T15:53:39.093Z,44.20
2019-06-07T15:56:03.986Z,44.50
2019-06-07T15:58:33.040Z,42.90
2019-06-07T16:01:02.052Z,42.00
2019-06-07T16:03:31.472Z,42.40
2019-06-07T16:06:00.022Z,42.10
2019-06-07T16:08:29.039Z,41.50
2019-06-07T16:10:57.489Z,42.20
2019-06-07T16:13:25.941Z,41.60
2019-06-07T16:15:54.422Z,41.70
2019-06-07T16:18:23.099Z,41.60
2019-06-07T16:20:51.765Z,41.50
2019-06-07T16:23:20.250Z,41.90
2019-06-07T16:25:48.705Z,40.90
2019-06-07T16:28:17.159Z,41.70
2019-06-07T16:30:45.639Z,41.40
2019-06-07T16:33:14.463Z,42.10
2019-06-07T16:35:43.266Z,40.90
2019-06-07T16:38:11.867Z,40.90
2019-06-07T16:40:40.438Z,42.20
2019-06-07T16:43:18.216Z,41.40
2019-06-07T16:45:40.709Z,42.50
2019-06-07T16:48:09.459Z,41.60
2019-06-07T16:50:38.747Z,42.60
2019-06-07T16:53:07.405Z,42.30
2019-06-07T16:55:36.497Z,42.50
2019-06-07T16:58:05.243Z,43.30
2019-06-07T17:00:33.758Z,43.70
2019-06-07T17:03:02.206Z,42.50
2019-06-07T17:05:30.683Z,43.80
2019-06-07T17:07:59.461Z,43.60
2019-06-07T17:10:27.982Z,42.90
2019-06-07T17:12:56.540Z,43.00
2019-06-07T17:15:25.387Z,43.20
2019-06-07T17:17:54.099Z,43.00
2019-06-07T17:20:22.641Z,42.90
2019-06-07T17:22:51.096Z,43.20
2019-06-07T17:28:52.010Z,43.10
2019-06-07T17:31:20.719Z,43.70
2019-06-07T17:33:50.130Z,43.40
2019-06-07T17:36:18.819Z,43.70
2019-06-07T17:38:48.605Z,43.40
2019-06-07T17:41:17.338Z,43.50
2019-06-07T17:43:55.961Z,43.20
2019-06-07T17:46:16.480Z,42.90
2019-06-07T17:48:45.561Z,44.30
2019-06-07T17:51:14.302Z,43.80
2019-06-07T17:53:43.871Z,44.70
2019-06-07T17:56:12.478Z,43.40
2019-06-07T17:58:42.189Z,43.60
2019-06-07T18:01:10.917Z,44.10
2019-06-07T18:03:39.538Z,42.20
2019-06-07T18:06:08.647Z,42.90
2019-06-07T18:08:37.250Z,43.30
2019-06-07T18:11:06.014Z,44.50
2019-06-07T18:13:34.563Z,42.70
2019-06-07T18:16:03.148Z,42.70
2019-06-07T18:18:31.872Z,42.70
2019-06-07T18:21:00.756Z,43.80
2019-06-07T18:23:29.346Z,43.70
2019-06-07T18:25:58.859Z,43.80
2019-06-07T18:28:27.547Z,42.80
2019-06-07T18:30:56.066Z,42.70
2019-06-07T18:33:24.598Z,43.20
2019-06-07T18:35:53.499Z,42.90
2019-06-07T18:38:22.204Z,43.80
2019-06-07T18:40:51.263Z,44.10
2019-06-07T18:43:20.574Z,43.30
2019-06-07T18:45:49.321Z,42.60
2019-06-07T18:48:17.852Z,43.20
2019-06-07T18:50:46.602Z,43.50
2019-06-07T18:53:15.228Z,43.50
2019-06-07T18:55:43.826Z,44.40
2019-06-07T18:58:12.387Z,45.20
2019-06-07T19:00:41.192Z,45.90
2019-06-07T19:03:10.069Z,46.20
2019-06-07T19:05:38.960Z,46.10
2019-06-07T19:08:07.803Z,45.90
2019-06-07T19:10:36.412Z,46.80
2019-06-07T19:13:05.210Z,47.40
2019-06-07T19:15:33.719Z,46.80
2019-06-07T19:18:02.760Z,46.60
2019-06-07T19:20:31.574Z,46.80
2019-06-07T19:23:00.507Z,47.00
2019-06-07T19:25:29.239Z,46.70
2019-06-07T19:27:59.139Z,48.00
2019-06-07T19:30:28.468Z,47.40
2019-06-07T19:32:57.333Z,47.80
2019-06-07T19:35:25.991Z,47.80
2019-06-07T19:37:55.755Z,48.50
2019-06-07T19:40:24.538Z,48.30
2019-06-07T19:42:54.098Z,48.70
2019-06-07T19:45:31.457Z,47.90
2019-06-07T19:47:54.436Z,48.20
2019-06-07T19:50:23.076Z,48.50
2019-06-07T19:52:53.015Z,49.50
2019-06-07T19:55:22.192Z,49.70
2019-06-07T19:57:50.706Z,50.20
2019-06-07T20:00:19.394Z,50.50
2019-06-07T20:02:47.948Z,51.20
2019-06-07T20:05:18.073Z,51.40
2019-06-07T20:07:46.531Z,52.30
2019-06-07T20:10:15.910Z,52.10
2019-06-07T20:12:44.593Z,52.50
2019-06-07T20:15:27.797Z,52.70
2019-06-07T20:17:44.183Z,51.60
2019-06-07T20:20:13.097Z,51.00
2019-06-07T20:22:41.624Z,50.90
2019-06-07T20:25:11.624Z,52.50
2019-06-07T20:27:40.135Z,52.90
2019-06-07T20:30:10.216Z,52.80
2019-06-07T20:32:38.773Z,52.40
2019-06-07T20:35:08.241Z,52.10
2019-06-07T20:37:37.253Z,52.60
2019-06-07T20:40:22.722Z,52.90
2019-06-07T20:42:38.951Z,52.30
2019-06-07T20:45:08.548Z,52.10
2019-06-07T20:47:37.337Z,52.30
2019-06-07T20:50:08.669Z,52.00
2019-06-07T20:52:37.565Z,51.80
2019-06-07T20:55:09.476Z,52.50
2019-06-07T20:57:38.583Z,53.10
2019-06-07T21:00:14.634Z,53.00
2019-06-07T21:02:38.836Z,52.30
2019-06-07T21:05:07.735Z,51.20
2019-06-07T21:07:36.413Z,51.30
2019-06-07T21:10:09.020Z,51.10
2019-06-07T21:12:38.803Z,51.50
2019-06-07T21:15:11.834Z,51.50
2019-06-07T21:17:38.326Z,51.20
2019-06-07T21:20:11.931Z,51.60
2019-06-07T21:22:38.915Z,50.50
2019-06-07T21:25:09.211Z,50.20
2019-06-07T21:27:38.382Z,51.00
2019-06-07T21:30:09.578Z,50.80
2019-06-07T21:32:38.461Z,51.10
2019-06-07T21:35:08.055Z,51.20
2019-06-07T21:37:36.801Z,51.90
2019-06-07T21:40:06.346Z,51.80
2019-06-07T21:42:35.111Z,51.20
2019-06-07T21:45:07.304Z,52.50
2019-06-07T21:47:34.871Z,52.10
2019-06-07T21:50:04.969Z,51.70
2019-06-07T21:52:34.254Z,53.00
2019-06-07T21:55:02.927Z,53.30
2019-06-07T21:57:31.582Z,53.00
2019-06-07T22:00:00.092Z,52.90
2019-06-07T22:02:28.619Z,53.10
2019-06-07T22:04:57.159Z,53.30
2019-06-07T22:07:26.066Z,53.30
2019-06-07T22:09:54.598Z,53.30
2019-06-07T22:12:23.335Z,55.30
2019-06-07T22:14:51.810Z,55.30
2019-06-07T22:17:20.261Z,54.70
2019-06-07T22:19:48.714Z,54.90
2019-06-07T22:22:17.564Z,55.70
2019-06-07T22:24:46.006Z,56.40
2019-06-07T22:27:15.581Z,56.30
2019-06-07T22:29:44.321Z,57.00
2019-06-07T22:32:13.028Z,57.40
2019-06-07T22:34:41.662Z,57.90
2019-06-07T22:37:11.296Z,57.90
2019-06-07T22:39:40.116Z,58.00
2019-06-07T22:42:08.854Z,57.90
2019-06-07T22:44:40.055Z,58.20
2019-06-07T22:47:08.004Z,58.40
2019-06-07T22:49:36.749Z,58.90
2019-06-07T22:52:08.597Z,58.80
2019-06-07T22:54:35.399Z,57.80
2019-06-07T22:57:06.027Z,56.30
2019-06-07T22:59:34.839Z,57.10
2019-06-07T23:02:03.287Z,58.60
2019-06-07T23:04:31.766Z,58.50
2019-06-07T23:07:00.566Z,59.70
2019-06-07T23:09:29.360Z,59.70
2019-06-07T23:11:57.809Z,60.40
2019-06-07T23:14:44.650Z,60.90
2019-06-07T23:17:13.834Z,61.40
2019-06-07T23:19:42.858Z,62.30
2019-06-07T23:22:11.920Z,71.30
2019-06-07T23:24:40.449Z,74.30
2019-06-07T23:27:10.915Z,72.50
2019-06-07T23:29:39.732Z,65.10
2019-06-07T23:33:02.918Z,64.50
2019-06-07T23:35:31.393Z,64.60
2019-06-07T23:37:59.866Z,64.50
2019-06-07T23:40:28.749Z,64.20
2019-06-07T23:42:57.646Z,64.00
2019-06-07T23:45:26.165Z,64.00
2019-06-07T23:47:54.611Z,62.70
2019-06-07T23:50:23.089Z,63.00
2019-06-07T23:52:51.546Z,62.90
2019-06-07T23:55:20.155Z,63.70
2019-06-07T23:57:48.739Z,63.70
